Time;durP1;ratioP1;P1;durP2;ratioP2;P2;SDS_P1;SDS_P2;PMS_P1;PMS_P2;Temp;Humidity;BMP_temperature;BMP_pressure;BME280_temperature;BME280_humidity;BME280_pressure;Samples;Min_cycle;Max_cycle;Signal;HPM_P1;HPM_P2
2024/02/08 00:02:17;;;;;;;1.47;1.20;;;8.40;1.00;;;;;;5097127;28;20434;-42
2024/02/08 00:04:44;;;;;;;2.00;1.27;;;8.30;1.00;;;;;;5095585;28;20474;-42
2024/02/08 00:07:10;;;;;;;2.00;1.40;;;8.30;1.00;;;;;;5095404;28;20235;-41
2024/02/08 00:09:36;;;;;;;2.23;1.03;;;8.40;1.00;;;;;;5095986;28;20410;-45
2024/02/08 00:12:02;;;;;;;1.57;1.03;;;8.30;1.00;;;;;;5078877;28;20352;-47
2024/02/08 00:14:27;;;;;;;1.60;1.00;;;8.50;1.00;;;;;;5078805;28;20271;-43
2024/02/08 00:16:53;;;;;;;1.87;0.93;;;8.70;1.00;;;;;;5096655;28;20694;-49
2024/02/08 00:19:18;;;;;;;1.50;1.10;;;8.90;1.00;;;;;;5096578;28;20216;-45
2024/02/08 00:21:44;;;;;;;1.33;1.03;;;9.00;1.00;;;;;;5079096;28;20172;-43
2024/02/08 00:24:10;;;;;;;2.13;0.97;;;9.10;1.00;;;;;;5095765;28;20541;-44
2024/02/08 00:26:35;;;;;;;1.20;1.03;;;9.20;1.00;;;;;;5096100;28;20216;-43
2024/02/08 00:29:01;;;;;;;1.63;1.10;;;9.30;1.00;;;;;;5096180;28;20255;-44
2024/02/08 00:31:26;;;;;;;1.13;0.83;;;9.20;1.00;;;;;;5097014;28;20586;-44
2024/02/08 00:33:52;;;;;;;1.00;0.73;;;9.00;1.00;;;;;;5096876;28;20558;-41
2024/02/08 00:36:18;;;;;;;1.20;0.70;;;8.90;1.00;;;;;;5097771;28;20182;-43
2024/02/08 00:38:44;;;;;;;1.50;1.10;;;8.80;1.00;;;;;;5096634;28;20187;-44
2024/02/08 00:41:09;;;;;;;1.20;0.90;;;8.70;1.00;;;;;;5095382;28;20681;-42
2024/02/08 00:43:39;;;;;;;1.30;1.00;;;8.70;1.00;;;;;;5095640;28;20520;-43
2024/02/08 00:46:05;;;;;;;2.17;1.07;;;8.70;1.00;;;;;;5095348;28;20535;-45
2024/02/08 00:48:31;;;;;;;2.17;1.13;;;8.60;1.00;;;;;;5095681;28;20810;-43
2024/02/08 00:50:56;;;;;;;1.20;0.90;;;8.60;1.00;;;;;;5095534;28;20725;-42
2024/02/08 00:53:22;;;;;;;1.50;1.10;;;8.50;1.00;;;;;;5094165;28;20928;-40
2024/02/08 00:55:47;;;;;;;1.60;1.13;;;8.50;1.00;;;;;;5077164;28;20198;-43
2024/02/08 00:58:16;;;;;;;2.67;1.47;;;8.50;1.00;;;;;;5095761;28;20181;-41
2024/02/08 01:00:42;;;;;;;1.97;1.50;;;8.40;1.00;;;;;;5094178;28;20172;-44
2024/02/08 01:03:08;;;;;;;2.83;1.73;;;8.40;1.00;;;;;;5094605;28;20596;-42
2024/02/08 01:05:34;;;;;;;2.50;1.33;;;8.40;1.00;;;;;;5094656;28;20497;-43
2024/02/08 01:08:00;;;;;;;2.30;1.40;;;8.40;1.00;;;;;;5077540;28;20311;-41
2024/02/08 01:10:27;;;;;;;2.60;1.50;;;8.40;1.00;;;;;;5095893;28;20426;-43
2024/02/08 01:12:54;;;;;;;2.47;1.37;;;8.40;1.00;;;;;;5099194;28;20445;-41
2024/02/08 01:15:20;;;;;;;3.10;1.70;;;8.40;1.00;;;;;;5099764;28;20414;-41
2024/02/08 01:17:46;;;;;;;1.97;1.00;;;8.40;1.00;;;;;;5081232;28;20768;-42
2024/02/08 01:20:18;;;;;;;1.87;1.37;;;8.50;1.00;;;;;;5081648;28;20473;-44
2024/02/08 01:22:45;;;;;;;1.50;1.17;;;8.50;1.00;;;;;;5099668;28;20220;-44
2024/02/08 01:25:11;;;;;;;1.93;1.10;;;8.50;1.00;;;;;;5098767;28;20438;-42
2024/02/08 01:27:37;;;;;;;1.90;1.30;;;8.50;1.00;;;;;;5098570;28;20407;-41
2024/02/08 01:30:07;;;;;;;1.60;1.07;;;8.50;1.00;;;;;;5099240;28;20184;-42
2024/02/08 01:32:33;;;;;;;1.33;1.10;;;8.50;1.00;;;;;;5099249;28;20206;-43
2024/02/08 01:34:59;;;;;;;1.47;0.90;;;8.50;1.00;;;;;;5080942;28;20736;-41
2024/02/08 01:37:24;;;;;;;1.47;0.93;;;8.50;1.00;;;;;;5098029;28;20263;-44
2024/02/08 01:39:50;;;;;;;1.70;1.00;;;8.50;1.00;;;;;;5080880;28;20173;-43
2024/02/08 01:42:16;;;;;;;3.23;1.23;;;8.50;1.00;;;;;;5098963;28;20642;-42
2024/02/08 01:44:46;;;;;;;1.57;1.13;;;8.50;1.00;;;;;;5099230;28;20286;-41
2024/02/08 01:47:20;;;;;;;1.37;1.00;;;8.50;1.00;;;;;;5098869;28;20469;-42
2024/02/08 01:49:47;;;;;;;1.43;1.00;;;8.50;1.00;;;;;;5097937;28;20512;-46
2024/02/08 01:52:18;;;;;;;1.53;1.07;;;8.50;1.00;;;;;;5080508;28;20430;-42
2024/02/08 01:54:44;;;;;;;1.67;0.87;;;8.50;1.00;;;;;;5079802;28;20419;-41
2024/02/08 01:57:10;;;;;;;2.53;1.13;;;8.60;1.00;;;;;;5096757;28;20441;-42
2024/02/08 01:59:36;;;;;;;3.20;1.10;;;8.60;1.00;;;;;;5097539;28;20200;-43
2024/02/08 02:02:02;;;;;;;1.50;1.00;;;8.60;1.00;;;;;;5098200;28;20499;-42
2024/02/08 02:04:30;;;;;;;1.37;1.13;;;8.60;1.00;;;;;;5098422;28;20824;-41
2024/02/08 02:06:58;;;;;;;1.73;0.97;;;8.50;1.00;;;;;;5098229;28;20205;-41
2024/02/08 02:09:24;;;;;;;1.30;1.10;;;8.50;1.00;;;;;;5098070;28;20636;-40
2024/02/08 02:12:12;;;;;;;2.03;1.07;;;8.50;1.00;;;;;;5080254;28;20758;-43
2024/02/08 02:14:38;;;;;;;2.20;0.73;;;8.50;1.00;;;;;;5098614;28;20222;-40
2024/02/08 02:17:25;;;;;;;2.00;0.73;;;8.60;1.00;;;;;;5098206;28;20430;-41
2024/02/08 02:19:52;;;;;;;1.50;0.70;;;8.60;1.00;;;;;;5078339;28;20499;-42
2024/02/08 02:22:19;;;;;;;2.00;1.10;;;8.50;1.00;;;;;;5097633;28;20541;-42
2024/02/08 02:24:48;;;;;;;2.13;0.97;;;8.60;1.00;;;;;;5078945;28;20499;-40
2024/02/08 02:27:15;;;;;;;1.57;1.03;;;8.60;1.00;;;;;;5063181;28;20476;-42
2024/02/08 02:29:44;;;;;;;1.40;0.80;;;8.60;1.00;;;;;;5098300;28;20492;-42
2024/02/08 02:32:15;;;;;;;0.80;0.50;;;8.60;1.00;;;;;;5098130;28;20739;-44
2024/02/08 02:34:42;;;;;;;1.50;0.83;;;8.50;1.00;;;;;;5097389;28;20426;-41
2024/02/08 02:37:08;;;;;;;1.03;0.70;;;8.50;1.00;;;;;;5098025;28;20414;-41
2024/02/08 02:39:34;;;;;;;1.47;0.87;;;8.60;1.00;;;;;;5079315;28;20440;-41
2024/02/08 02:42:00;;;;;;;0.97;0.70;;;8.60;1.00;;;;;;5097377;28;20430;-41
2024/02/08 02:44:29;;;;;;;1.30;0.70;;;8.70;1.00;;;;;;5096464;28;20538;-41
2024/02/08 02:46:59;;;;;;;0.90;0.50;;;8.70;1.00;;;;;;5096701;28;21095;-41
2024/02/08 02:49:26;;;;;;;0.80;0.50;;;8.70;1.00;;;;;;5097913;28;20423;-42
2024/02/08 02:51:52;;;;;;;0.90;0.50;;;8.70;1.00;;;;;;5079659;28;20414;-45
2024/02/08 02:54:21;;;;;;;1.00;0.70;;;8.60;1.00;;;;;;5096548;28;20921;-42
2024/02/08 02:56:47;;;;;;;0.90;0.50;;;8.70;1.00;;;;;;5080104;28;20426;-40
2024/02/08 02:59:16;;;;;;;0.80;0.60;;;8.70;1.00;;;;;;5097596;28;20793;-42
2024/02/08 03:01:49;;;;;;;1.77;0.60;;;8.70;1.00;;;;;;5096410;28;20426;-45
2024/02/08 03:04:17;;;;;;;0.93;0.60;;;8.70;1.00;;;;;;5095749;28;20555;-43
2024/02/08 03:06:45;;;;;;;0.90;0.53;;;8.70;1.00;;;;;;5097003;28;20481;-44
2024/02/08 03:09:23;;;;;;;1.43;0.80;;;8.70;1.00;;;;;;5097074;28;20478;-41
2024/02/08 03:11:48;;;;;;;1.13;0.70;;;8.70;1.00;;;;;;5096763;28;20414;-42
2024/02/08 03:14:15;;;;;;;1.03;0.80;;;8.70;1.00;;;;;;5096965;28;20441;-41
2024/02/08 03:16:45;;;;;;;1.00;0.60;;;8.70;1.00;;;;;;5095134;28;20430;-43
2024/02/08 03:19:11;;;;;;;1.00;0.60;;;8.70;1.00;;;;;;5095356;28;20426;-45
2024/02/08 03:21:39;;;;;;;0.97;0.57;;;8.70;1.00;;;;;;5095146;28;20417;-40
2024/02/08 03:24:08;;;;;;;1.00;0.50;;;8.70;1.00;;;;;;5096766;28;20816;-40
2024/02/08 03:26:43;;;;;;;0.97;0.67;;;8.70;1.00;;;;;;5097097;28;20488;-42
2024/02/08 03:32:31;;;;;;;1.30;0.80;;;8.70;1.00;;;;;;5096010;28;20511;-43
2024/02/08 03:34:56;;;;;;;1.37;0.80;;;8.70;1.00;;;;;;5095631;28;20481;-42
2024/02/08 03:37:23;;;;;;;1.37;0.97;;;8.70;1.00;;;;;;5094602;28;20618;-45
2024/02/08 03:39:48;;;;;;;2.60;1.20;;;8.70;1.00;;;;;;5095531;28;20172;-40
2024/02/08 03:42:16;;;;;;;3.00;1.80;;;8.70;1.00;;;;;;5078297;28;20578;-42
2024/02/08 03:44:43;;;;;;;1.57;1.13;;;8.80;1.00;;;;;;5078328;28;20286;-42
2024/02/08 03:47:09;;;;;;;2.07;0.93;;;8.80;1.00;;;;;;5095799;28;20485;-42
2024/02/08 03:49:35;;;;;;;1.87;1.07;;;8.80;1.00;;;;;;5094708;28;20594;-40
2024/02/08 03:52:02;;;;;;;2.17;1.07;;;8.70;1.00;;;;;;5095399;28;20670;-41
2024/02/08 03:54:30;;;;;;;1.30;0.70;;;8.80;1.00;;;;;;5096319;28;20642;-46
2024/02/08 03:56:59;;;;;;;1.30;0.73;;;8.70;1.00;;;;;;5096336;28;20820;-41
2024/02/08 03:59:26;;;;;;;2.10;1.10;;;8.70;1.00;;;;;;5096259;28;20433;-45
2024/02/08 04:02:03;;;;;;;1.90;0.80;;;8.70;1.00;;;;;;5096297;28;20431;-41
2024/02/08 04:04:49;;;;;;;1.63;0.70;;;8.70;1.00;;;;;;5096079;28;20887;-43
2024/02/08 04:10:19;;;;;;;1.57;0.80;;;8.70;1.00;;;;;;5080917;28;20429;-41
2024/02/08 04:53:31;;;;;;;1.00;0.60;;;8.70;1.00;;;;;;5096127;28;20429;-44
2024/02/08 04:53:55;;;;;;;0.90;0.80;;;8.80;1.00;;;;;;5094659;28;20427;-41
2024/02/08 04:56:20;;;;;;;1.00;0.60;;;8.90;1.00;;;;;;5094682;28;20418;-42
2024/02/08 04:58:46;;;;;;;1.00;0.67;;;8.90;1.00;;;;;;5094407;28;20712;-41
2024/02/08 05:01:12;;;;;;;0.80;0.60;;;8.80;1.00;;;;;;5093325;28;20592;-42
2024/02/08 05:03:39;;;;;;;1.23;0.70;;;8.80;1.00;;;;;;5076889;28;20183;-42
2024/02/08 05:06:15;;;;;;;1.17;0.80;;;8.90;1.00;;;;;;5094100;28;20470;-43
2024/02/08 05:08:45;;;;;;;1.10;0.80;;;8.80;1.00;;;;;;5094601;28;20469;-41
2024/02/08 05:11:14;;;;;;;2.30;0.93;;;8.90;1.00;;;;;;5094857;28;20446;-41
2024/02/08 05:13:41;;;;;;;1.00;0.60;;;8.90;1.00;;;;;;5095461;28;20415;-41
2024/02/08 05:16:08;;;;;;;1.33;0.70;;;8.90;1.00;;;;;;5094886;28;20406;-40
2024/02/08 05:18:36;;;;;;;1.40;1.10;;;8.90;1.00;;;;;;5094999;28;20704;-43
2024/02/08 05:21:05;;;;;;;1.30;1.00;;;8.80;1.00;;;;;;5077108;28;20863;-41
2024/02/08 05:23:33;;;;;;;1.63;1.00;;;8.90;1.00;;;;;;5093875;28;20422;-44
2024/02/08 05:25:59;;;;;;;1.30;0.90;;;8.80;1.00;;;;;;5092520;28;20476;-43
2024/02/08 05:28:26;;;;;;;1.20;0.90;;;8.80;1.00;;;;;;5092238;28;20427;-43
2024/02/08 05:30:52;;;;;;;1.37;1.23;;;8.90;1.00;;;;;;5092066;28;20179;-42
2024/02/08 05:33:18;;;;;;;1.20;0.90;;;8.80;1.00;;;;;;5091642;28;20406;-41
2024/02/08 05:35:44;;;;;;;1.23;0.83;;;8.80;1.00;;;;;;5072794;28;20882;-42
2024/02/08 05:38:10;;;;;;;1.33;0.50;;;8.90;1.00;;;;;;5074194;28;20180;-40
2024/02/08 05:40:40;;;;;;;1.73;0.80;;;8.90;1.00;;;;;;5091333;28;20363;-42
2024/02/08 05:43:07;;;;;;;0.97;0.87;;;8.90;1.00;;;;;;5093119;28;20722;-42
2024/02/08 05:45:33;;;;;;;1.00;0.80;;;8.90;1.00;;;;;;5091095;28;20523;-42
2024/02/08 05:48:05;;;;;;;1.17;0.80;;;8.90;1.00;;;;;;5089263;28;20734;-42
2024/02/08 05:50:31;;;;;;;1.40;0.97;;;8.90;1.00;;;;;;5089118;28;20207;-41
2024/02/08 05:52:57;;;;;;;1.20;0.63;;;8.90;1.00;;;;;;5090114;28;20445;-41
2024/02/08 05:55:26;;;;;;;0.93;0.53;;;8.90;1.00;;;;;;5091389;28;20863;-43
2024/02/08 05:57:52;;;;;;;1.30;0.80;;;8.90;1.00;;;;;;5093554;28;20160;-44
2024/02/08 06:00:45;;;;;;;3.03;0.77;;;8.90;1.00;;;;;;5078958;28;20501;-41
2024/02/08 06:03:17;;;;;;;0.97;0.70;;;8.90;1.00;;;;;;5095548;28;20448;-43
2024/02/08 06:05:49;;;;;;;1.20;1.10;;;8.90;1.00;;;;;;5094794;28;20588;-41
2024/02/08 06:08:25;;;;;;;2.30;1.03;;;8.80;1.00;;;;;;5094950;28;20820;-42
2024/02/08 06:10:52;;;;;;;3.10;1.13;;;8.80;1.00;;;;;;5093967;28;20787;-43
2024/02/08 06:13:22;;;;;;;1.70;1.03;;;8.80;1.00;;;;;;5094418;28;20753;-43
2024/02/08 06:15:50;;;;;;;1.67;0.93;;;8.80;1.00;;;;;;5060982;28;20418;-42
2024/02/08 06:18:30;;;;;;;1.43;0.80;;;8.70;1.00;;;;;;5077462;28;20675;-42
2024/02/08 06:21:12;;;;;;;2.20;0.80;;;8.70;1.00;;;;;;5078942;28;20440;-44
2024/02/08 06:23:43;;;;;;;1.07;0.70;;;8.80;1.00;;;;;;5094756;28;20497;-41
2024/02/08 06:28:46;;;;;;;1.47;0.73;;;8.80;1.00;;;;;;5076689;28;20426;-42
2024/02/08 06:31:15;;;;;;;1.30;0.87;;;8.80;1.00;;;;;;5078698;28;20892;-41
2024/02/08 06:34:10;;;;;;;2.53;0.80;;;8.80;1.00;;;;;;5096650;28;20399;-45
2024/02/08 06:36:40;;;;;;;1.53;0.90;;;8.70;1.00;;;;;;5096088;28;20423;-41
2024/02/08 06:39:23;;;;;;;1.10;0.80;;;8.70;1.00;;;;;;5095592;28;20577;-41
2024/02/08 06:41:53;;;;;;;2.10;0.70;;;8.80;1.00;;;;;;5094559;28;20708;-41
2024/02/08 07:41:55;;;;;;;3.47;1.20;;;9.00;1.00;;;;;;5095373;28;20421;-43
2024/02/08 07:44:30;;;;;;;1.20;0.70;;;9.00;1.00;;;;;;5093547;28;20783;-43
2024/02/08 07:46:56;;;;;;;1.20;1.10;;;9.00;1.00;;;;;;5093545;28;20457;-42
2024/02/08 07:49:41;;;;;;;1.70;0.90;;;9.00;1.00;;;;;;5094289;28;20485;-43
2024/02/08 07:52:19;;;;;;;1.10;0.83;;;9.10;1.00;;;;;;5094072;28;20501;-41
2024/02/08 07:55:14;;;;;;;1.20;0.80;;;9.00;1.00;;;;;;5094457;28;20402;-42
2024/02/08 07:57:57;;;;;;;1.70;0.83;;;9.10;1.00;;;;;;5093355;28;20743;-41
2024/02/08 08:00:41;;;;;;;1.13;1.00;;;9.20;1.00;;;;;;5095882;28;20418;-46
2024/02/08 08:03:15;;;;;;;2.90;0.90;;;9.20;1.00;;;;;;5093663;28;20860;-45
2024/02/08 08:05:42;;;;;;;2.40;1.10;;;9.30;1.00;;;;;;5076566;28;20473;-41
2024/02/08 08:08:25;;;;;;;2.33;1.00;;;9.30;1.00;;;;;;5078078;28;20470;-45
2024/02/08 08:11:02;;;;;;;1.10;1.00;;;9.40;1.00;;;;;;5093363;28;20434;-42
2024/02/08 08:19:08;;;;;;;1.57;1.27;;;9.50;1.00;;;;;;5092922;28;20444;-44
2024/02/08 08:24:26;;;;;;;1.30;1.00;;;9.40;1.00;;;;;;5093216;28;20902;-45
2024/02/08 08:27:06;;;;;;;1.10;0.77;;;9.40;1.00;;;;;;5092604;28;20496;-44
2024/02/08 08:29:44;;;;;;;1.40;0.90;;;9.40;1.00;;;;;;5092167;28;20437;-42
2024/02/08 08:37:45;;;;;;;2.10;1.07;;;9.60;1.00;;;;;;5091410;28;20476;-41
2024/02/08 08:40:20;;;;;;;2.10;0.93;;;9.60;1.00;;;;;;5094296;28;20438;-45
2024/02/08 08:42:50;;;;;;;1.60;1.20;;;9.70;1.00;;;;;;5092562;28;20433;-42
2024/02/08 08:45:17;;;;;;;1.53;0.97;;;9.80;1.00;;;;;;5094467;28;20442;-40
2024/02/08 08:47:43;;;;;;;1.50;0.80;;;9.80;1.00;;;;;;5093435;28;20414;-41
2024/02/08 08:50:17;;;;;;;1.90;0.70;;;9.80;1.00;;;;;;5093627;28;20430;-42
2024/02/08 08:52:47;;;;;;;1.47;1.00;;;9.90;1.00;;;;;;5094469;28;20468;-42
2024/02/08 08:55:17;;;;;;;1.33;1.03;;;10.00;1.00;;;;;;5093194;28;20828;-41
2024/02/08 08:57:53;;;;;;;1.97;0.80;;;10.10;1.00;;;;;;5094262;28;20525;-42
2024/02/08 09:03:25;;;;;;;1.87;0.80;;;10.10;1.00;;;;;;5028739;28;20454;-41
2024/02/08 09:05:57;;;;;;;0.90;0.70;;;10.00;1.00;;;;;;5093875;28;20871;-40
2024/02/08 09:08:34;;;;;;;0.97;0.57;;;10.00;1.00;;;;;;5093432;28;20517;-47
2024/02/08 09:11:03;;;;;;;1.33;0.73;;;10.10;1.00;;;;;;5092578;28;20681;-44
2024/02/08 09:13:29;;;;;;;1.47;1.23;;;10.20;1.00;;;;;;5090938;28;20426;-44
2024/02/08 09:16:29;;;;;;;1.83;0.80;;;10.50;1.00;;;;;;5092154;28;20728;-45
2024/02/08 09:21:35;;;;;;;2.20;1.03;;;11.20;1.00;;;;;;5093968;28;20414;-46
2024/02/08 09:24:05;;;;;;;1.10;0.50;;;11.20;1.00;;;;;;5093523;28;20422;-43
2024/02/08 09:26:52;;;;;;;0.90;0.70;;;11.10;1.00;;;;;;5094597;28;20941;-46
2024/02/08 09:29:24;;;;;;;1.20;1.00;;;11.10;1.00;;;;;;5095116;28;20422;-47
2024/02/08 09:31:58;;;;;;;3.00;0.80;;;11.40;1.00;;;;;;5094659;28;20418;-44
2024/02/08 09:34:36;;;;;;;0.93;0.67;;;11.60;1.00;;;;;;5098442;28;20827;-44
2024/02/08 09:37:08;;;;;;;5.20;2.27;;;11.60;1.00;;;;;;5099844;28;20476;-44
2024/02/08 09:39:58;;;;;;;1.13;0.80;;;11.60;1.00;;;;;;5098184;28;20563;-45
2024/02/08 09:42:29;;;;;;;2.63;0.83;;;11.50;1.00;;;;;;5107497;28;20488;-44
2024/02/08 09:45:13;;;;;;;1.70;0.83;;;11.30;1.00;;;;;;5106542;28;20455;-45
2024/02/08 09:47:51;;;;;;;1.63;1.10;;;11.20;1.00;;;;;;5096743;28;20494;-46
2024/02/08 09:50:21;;;;;;;1.00;0.60;;;11.10;1.00;;;;;;5087469;28;20838;-46
2024/02/08 09:52:56;;;;;;;1.27;0.90;;;11.20;1.00;;;;;;5101788;28;20748;-43
2024/02/08 09:55:32;;;;;;;2.20;0.67;;;11.30;1.00;;;;;;5086197;28;20425;-44
2024/02/08 09:58:04;;;;;;;1.10;0.70;;;11.30;1.00;;;;;;5117682;28;20723;-45
2024/02/08 10:03:31;;;;;;;1.40;0.73;;;12.00;99.90;;;;;;5102300;28;20515;-44
2024/02/08 10:06:13;;;;;;;1.23;0.70;;;12.40;99.90;;;;;;5085001;28;20564;-44
2024/02/08 10:08:51;;;;;;;1.73;0.77;;;12.60;99.90;;;;;;5100340;28;20421;-44
2024/02/08 10:11:35;;;;;;;1.17;0.80;;;12.50;99.90;;;;;;5113430;28;20485;-42
2024/02/08 10:14:02;;;;;;;1.93;1.00;;;12.10;99.90;;;;;;5117439;28;20732;-44
2024/02/08 10:16:47;;;;;;;1.03;0.70;;;12.10;99.90;;;;;;5117550;28;20566;-42
2024/02/08 10:22:10;;;;;;;1.30;0.97;;;12.10;99.90;;;;;;5116540;28;20432;-42
2024/02/08 10:27:20;;;;;;;1.10;0.80;;;11.70;99.90;;;;;;5116080;28;20537;-42
2024/02/08 10:29:56;;;;;;;1.57;0.70;;;11.40;1.00;;;;;;5118086;28;20430;-42
2024/02/08 10:32:27;;;;;;;1.20;0.83;;;11.10;1.00;;;;;;5117975;28;21034;-43
2024/02/08 10:35:13;;;;;;;1.63;0.70;;;11.10;1.00;;;;;;5118364;28;20585;-43
2024/02/08 10:37:47;;;;;;;0.97;0.67;;;11.10;1.00;;;;;;5116126;28;20429;-43
2024/02/08 10:40:32;;;;;;;1.17;0.63;;;11.00;1.00;;;;;;5115174;28;20424;-41
2024/02/08 10:43:16;;;;;;;1.10;0.60;;;11.00;1.00;;;;;;5099299;28;20448;-42
2024/02/08 10:45:47;;;;;;;0.90;0.73;;;11.10;1.00;;;;;;5116549;28;20469;-41
2024/02/08 10:48:16;;;;;;;1.40;0.80;;;11.00;1.00;;;;;;5117516;28;20465;-41
2024/02/08 10:50:44;;;;;;;6.90;1.00;;;11.10;1.00;;;;;;5099299;28;20669;-49
2024/02/08 10:53:39;;;;;;;1.00;0.80;;;11.20;1.00;;;;;;5116552;28;20421;-43
2024/02/08 10:56:13;;;;;;;2.13;1.00;;;11.40;1.00;;;;;;5101313;28;20418;-44
2024/02/08 10:58:55;;;;;;;1.27;0.93;;;11.50;1.00;;;;;;5097444;28;20409;-40
2024/02/08 11:01:33;;;;;;;0.93;0.63;;;11.80;1.00;;;;;;5114638;28;20425;-43
2024/02/08 11:04:17;;;;;;;1.17;0.60;;;12.10;99.90;;;;;;5114288;28;20428;-41
2024/02/08 11:07:06;;;;;;;1.57;1.27;;;12.40;99.90;;;;;;5115743;28;20565;-41
2024/02/08 11:09:35;;;;;;;1.10;0.70;;;13.10;99.90;;;;;;5099238;28;20410;-41
2024/02/08 11:12:08;;;;;;;1.40;0.90;;;13.10;43.30;;;;;;5115037;28;20690;-41
2024/02/08 11:14:53;;;;;;;0.90;0.60;;;13.40;1.00;;;;;;5081144;28;20479;-41
2024/02/08 11:17:21;;;;;;;1.57;0.77;;;13.30;1.00;;;;;;5100221;28;20430;-42
2024/02/08 11:19:49;;;;;;;1.10;0.60;;;13.20;1.00;;;;;;5097884;28;20830;-41
2024/02/08 11:22:39;;;;;;;1.07;0.60;;;13.00;42.60;;;;;;5096735;28;20426;-43
2024/02/08 11:25:22;;;;;;;1.10;0.60;;;13.00;99.90;;;;;;5116571;28;20436;-42
2024/02/08 11:27:50;;;;;;;0.80;0.50;;;13.20;68.50;;;;;;5114164;28;20798;-43
2024/02/08 11:30:32;;;;;;;1.00;0.60;;;13.30;77.90;;;;;;5115271;28;20449;-41
2024/02/08 11:33:22;;;;;;;1.10;0.40;;;13.30;1.00;;;;;;5114670;28;20421;-42
2024/02/08 11:35:54;;;;;;;0.90;0.63;;;13.10;1.00;;;;;;5110562;28;20456;-41
2024/02/08 11:38:26;;;;;;;0.90;0.50;;;12.90;99.90;;;;;;5113697;28;20429;-41
2024/02/08 11:40:55;;;;;;;1.30;0.80;;;12.70;99.90;;;;;;5113465;28;20768;-41
2024/02/08 11:43:25;;;;;;;0.93;0.67;;;12.80;99.90;;;;;;5114517;28;20453;-41
2024/02/08 11:45:55;;;;;;;1.83;0.60;;;12.70;99.90;;;;;;5096799;28;20579;-40
2024/02/08 11:48:28;;;;;;;1.43;0.80;;;12.60;99.90;;;;;;5096958;28;20452;-41
2024/02/08 11:51:02;;;;;;;1.60;0.80;;;12.50;99.90;;;;;;5117787;28;20485;-42
2024/02/08 11:53:32;;;;;;;1.10;0.60;;;12.50;99.90;;;;;;5098465;28;20439;-41
2024/02/08 11:56:08;;;;;;;1.53;0.80;;;12.30;99.90;;;;;;5114873;28;20750;-43
2024/02/08 11:58:54;;;;;;;2.30;1.00;;;12.20;99.90;;;;;;5095717;28;20850;-41
2024/02/08 12:01:25;;;;;;;1.53;0.80;;;12.10;99.90;;;;;;5114572;28;20413;-44
2024/02/08 12:03:53;;;;;;;2.03;0.80;;;12.00;99.90;;;;;;5113699;28;20512;-41
2024/02/08 12:06:26;;;;;;;2.00;1.33;;;12.20;99.90;;;;;;5094824;28;20475;-42
2024/02/08 12:09:02;;;;;;;2.07;0.90;;;12.40;99.90;;;;;;5113219;28;20664;-54
2024/02/08 12:11:32;;;;;;;1.70;0.80;;;12.50;99.90;;;;;;5111578;28;20454;-42
2024/02/08 12:14:01;;;;;;;3.43;0.83;;;12.50;99.90;;;;;;5095129;28;20409;-41
2024/02/08 12:16:29;;;;;;;1.97;0.83;;;12.50;99.90;;;;;;5094462;28;20820;-42
2024/02/08 12:18:56;;;;;;;1.37;0.97;;;12.50;99.90;;;;;;5096660;28;20508;-42
2024/02/08 12:21:23;;;;;;;1.77;0.97;;;12.60;41.80;;;;;;5112499;28;20430;-39
2024/02/08 12:23:57;;;;;;;1.83;0.93;;;12.60;33.20;;;;;;5111266;28;20421;-39
2024/02/08 12:26:31;;;;;;;2.93;1.30;;;12.70;19.10;;;;;;5112047;28;20467;-43
2024/02/08 12:29:02;;;;;;;3.20;1.27;;;12.90;1.00;;;;;;5079030;28;20406;-42
2024/02/08 12:31:32;;;;;;;2.50;0.90;;;13.00;1.00;;;;;;5113867;28;20409;-43
2024/02/08 12:34:03;;;;;;;4.20;1.10;;;13.10;1.00;;;;;;5092546;28;20857;-42
2024/02/08 12:36:31;;;;;;;3.97;0.97;;;13.30;99.90;;;;;;5093913;28;20426;-42
2024/02/08 12:39:00;;;;;;;2.60;1.20;;;14.40;1.00;;;;;;5093642;28;20421;-41
2024/02/08 12:41:29;;;;;;;3.93;1.00;;;15.40;99.90;;;;;;5093569;28;20823;-43
2024/02/08 12:43:56;;;;;;;5.70;2.00;;;16.10;1.00;;;;;;5113296;28;20410;-41
2024/02/08 12:46:22;;;;;;;3.30;1.33;;;16.10;1.00;;;;;;5095117;28;20638;-42
2024/02/08 12:48:48;;;;;;;7.20;1.60;;;15.30;99.90;;;;;;5095927;28;20413;-41
2024/02/08 12:51:19;;;;;;;5.97;2.00;;;14.80;1.00;;;;;;5093175;28;20708;-40
2024/02/08 12:53:45;;;;;;;4.43;1.70;;;14.40;99.90;;;;;;5076253;28;20528;-42
2024/02/08 12:56:10;;;;;;;5.00;1.63;;;13.90;99.90;;;;;;5093602;28;20955;-41
2024/02/08 12:58:40;;;;;;;5.93;2.97;;;13.90;99.90;;;;;;5092350;28;20449;-40
2024/02/08 13:01:07;;;;;;;4.77;1.53;;;14.20;1.00;;;;;;5091197;28;20199;-41
2024/02/08 13:03:34;;;;;;;4.77;1.77;;;14.40;1.00;;;;;;5110184;28;20502;-42
2024/02/08 13:06:02;;;;;;;4.93;1.83;;;14.40;99.90;;;;;;5112002;28;20476;-40
2024/02/08 13:08:33;;;;;;;8.27;1.90;;;14.00;99.90;;;;;;5099841;28;20421;-43
2024/02/08 13:11:00;;;;;;;6.60;2.20;;;14.30;99.90;;;;;;5116912;28;20409;-41
2024/02/08 13:13:26;;;;;;;6.23;1.70;;;14.50;99.90;;;;;;5117040;28;20413;-41
2024/02/08 13:16:06;;;;;;;5.70;2.00;;;14.70;1.00;;;;;;5098773;28;20513;-43
2024/02/08 13:18:32;;;;;;;11.50;2.53;;;14.70;99.90;;;;;;5100204;28;20433;-40
2024/02/08 13:20:58;;;;;;;8.70;2.40;;;14.40;1.00;;;;;;5098752;28;20711;-42
2024/02/08 13:23:24;;;;;;;9.40;2.63;;;14.20;99.90;;;;;;5121583;27;20235;-44
2024/02/08 13:25:57;;;;;;;9.07;3.10;;;14.10;1.00;;;;;;5121222;27;20460;-41
2024/02/08 13:28:24;;;;;;;9.50;3.40;;;14.10;1.00;;;;;;5109610;27;20490;-43
2024/02/08 13:30:53;;;;;;;7.80;3.73;;;14.00;99.90;;;;;;5098638;28;20423;-41
2024/02/08 13:33:19;;;;;;;13.63;2.80;;;13.90;1.00;;;;;;5098604;28;20434;-43
2024/02/08 13:35:48;;;;;;;8.00;3.00;;;13.90;1.00;;;;;;5063541;28;20866;-43
2024/02/08 13:38:15;;;;;;;11.80;3.13;;;14.00;99.90;;;;;;5097577;28;20487;-42
2024/02/08 13:40:47;;;;;;;8.17;3.10;;;13.90;1.00;;;;;;5097446;28;20535;-43
2024/02/08 13:43:16;;;;;;;12.93;3.33;;;13.90;1.00;;;;;;5096087;28;20712;-43
2024/02/08 13:45:42;;;;;;;6.17;3.20;;;13.90;1.00;;;;;;5076523;28;20441;-42
2024/02/08 13:48:12;;;;;;;8.33;2.93;;;13.70;1.00;;;;;;5097033;28;20426;-41
2024/02/08 13:50:38;;;;;;;5.70;2.27;;;13.30;1.00;;;;;;5097228;28;20554;-41
2024/02/08 13:53:04;;;;;;;6.93;2.50;;;13.10;1.00;;;;;;5095304;28;20429;-42
2024/02/08 13:55:32;;;;;;;6.10;3.00;;;13.10;94.00;;;;;;5099470;28;20465;-42
2024/02/08 13:58:06;;;;;;;7.37;3.27;;;12.90;99.90;;;;;;5064389;28;20442;-42
2024/02/08 14:00:32;;;;;;;7.93;3.40;;;12.90;99.90;;;;;;5080444;28;20890;-43
2024/02/08 14:03:00;;;;;;;13.53;3.80;;;12.90;99.90;;;;;;5076052;28;20422;-44
2024/02/08 14:05:29;;;;;;;7.03;2.63;;;12.80;99.90;;;;;;5095198;28;20628;-42
2024/02/08 14:07:57;;;;;;;13.27;3.60;;;12.70;99.90;;;;;;5097327;28;20429;-41
2024/02/08 14:10:27;;;;;;;10.40;3.23;;;12.80;99.90;;;;;;5096494;28;20767;-42
2024/02/08 14:12:59;;;;;;;12.10;3.00;;;12.70;99.90;;;;;;5078169;28;20462;-42
2024/02/08 14:15:31;;;;;;;7.93;2.90;;;12.70;99.90;;;;;;5096685;28;20546;-43
2024/02/08 14:18:48;;;;;;;6.93;2.40;;;12.80;99.90;;;;;;5095658;28;20497;-42
2024/02/08 14:21:20;;;;;;;11.80;3.90;;;12.90;1.00;;;;;;5089016;28;20918;-43
2024/02/08 14:23:38;;;;;;;12.80;3.70;;;12.80;73.20;;;;;;5078037;28;20422;-43
2024/02/08 14:28:34;;;;;;;10.87;3.97;;;12.60;1.00;;;;;;5095619;28;20474;-42
2024/02/08 14:31:02;;;;;;;11.83;3.27;;;12.50;1.00;;;;;;5078904;28;20428;-43
2024/02/08 14:33:28;;;;;;;12.83;3.90;;;12.60;1.00;;;;;;5079235;28;20425;-39
2024/02/08 14:35:54;;;;;;;17.63;4.43;;;12.70;1.00;;;;;;5096413;28;20440;-41
2024/02/08 14:38:23;;;;;;;13.10;3.97;;;12.80;99.90;;;;;;5093912;28;20491;-41
2024/02/08 14:40:51;;;;;;;11.37;4.10;;;13.00;14.40;;;;;;5094727;28;20242;-43
2024/02/08 14:43:25;;;;;;;11.27;3.90;;;13.10;1.00;;;;;;5095078;28;20402;-42
2024/02/08 14:45:54;;;;;;;16.00;4.50;;;13.30;1.00;;;;;;5093381;28;20560;-43
2024/02/08 14:48:27;;;;;;;11.90;3.50;;;13.50;1.00;;;;;;5076725;28;20422;-42
2024/02/08 14:51:05;;;;;;;10.77;3.97;;;13.50;99.90;;;;;;5096670;28;20585;-42
2024/02/08 14:53:40;;;;;;;11.60;3.37;;;13.40;1.00;;;;;;5096086;28;20422;-42
2024/02/08 14:56:07;;;;;;;11.37;4.20;;;13.30;99.90;;;;;;5095282;28;20763;-45
2024/02/08 14:58:33;;;;;;;11.10;3.53;;;13.30;99.90;;;;;;5095283;28;20981;-41
2024/02/08 15:01:09;;;;;;;11.70;2.90;;;13.20;99.90;;;;;;5078260;28;20426;-43
2024/02/08 15:03:38;;;;;;;8.30;3.37;;;13.10;1.00;;;;;;5079324;28;20184;-44
2024/02/08 15:07:05;;;;;;;11.87;3.77;;;13.00;1.00;;;;;;5095916;28;20478;-43
2024/02/08 15:10:07;;;;;;;16.20;4.20;;;12.90;99.90;;;;;;5085740;28;20442;-41
2024/02/08 15:12:09;;;;;;;12.67;3.43;;;12.60;1.00;;;;;;5077098;28;20431;-43
2024/02/08 15:14:42;;;;;;;13.87;5.00;;;12.30;1.00;;;;;;5095613;28;20438;-41
2024/02/08 15:17:10;;;;;;;15.70;4.30;;;12.30;98.40;;;;;;5094548;28;20583;-43
2024/02/08 15:19:45;;;;;;;11.90;4.17;;;12.20;99.90;;;;;;5075624;28;20411;-41
2024/02/08 15:24:57;;;;;;;14.70;4.47;;;12.20;99.90;;;;;;5076906;28;20421;-42
2024/02/08 15:27:31;;;;;;;10.07;3.50;;;12.20;99.90;;;;;;5076622;28;20501;-42
2024/02/08 15:30:11;;;;;;;17.50;4.40;;;12.20;99.90;;;;;;5095202;28;20607;-43
2024/02/08 15:35:39;;;;;;;13.97;4.67;;;12.20;99.90;;;;;;5079344;28;20427;-42
2024/02/08 15:41:06;;;;;;;10.23;3.90;;;12.20;99.40;;;;;;5087777;28;20414;-44
2024/02/08 15:43:36;;;;;;;9.80;4.00;;;12.10;99.90;;;;;;5079082;28;20449;-43